Tiempo atmosférico en la estación meteorológica de Valderrobres, Teruel (482 m.)



Fecha
DESCASC
Temp. máxima en grados centígrados (hora)
DESCASC
Temp. mínima en grados centígrados (hora)
DESCASC
Temp. media en grados centígrados
DESCASC
Racha de viento máxima en m/sg (hora)
DESCASC
Velocidad máxima media en intervalos de 10 minutos(hora)
DESCASC
Precipitaciones diarias en mm
DESCASC
Precipitaciones de 00:00 a 06:00 en mm
DESCASC
Precipitaciones de 06:00 a 12:00 en mm
DESCASC
Precipitaciones de 12:00 a 18:00 en mm
DESCASC
Precipitaciones de 18:00 a 24:00 en mm
DESCASC
04-03-2021 14.3 (16:10) 1.8 (07:30) 8.1 4.72 (13:40) 2.78 (13:50) 0 0 0 0 0
03-03-2021 13.8 (15:50) 5.6 (23:50) 9.7 3.61 (13:00) 1.67 (12:50) 0 0 0 0 0
02-03-2021 10.1 (12:30) 8 (05:10) 9.1 3.89 (11:50) 2.22 (12:40) 0 0 0 0 0
01-03-2021 10.2 (15:00) 3.7 (00:00) 6.9 6.67 (14:40) 3.06 (03:30) 0 0 0 0 0
28-02-2021 11.8 (11:50) 3.1 (00:00) 7.5 8.89 (14:40) 4.44 (17:00) 0 0 0 0 0
27-02-2021 14.5 (16:30) 2.2 (00:00) 8.4 5.56 (16:30) 3.33 (12:40) 0 0 0 0 0
26-02-2021 14.5 (14:40) 2.9 (00:00) 8.7 4.72 (15:00) 2.5 (15:00) 0 0 0 0 0
25-02-2021 16.1 (15:20) 0.1 (00:00) 8.1 5 (13:40) 2.5 (13:10) 0 0 0 0 0
24-02-2021 17.1 (15:00) 1.9 (00:00) 9.5 6.39 (17:40) 3.61 (17:10) 1.2 1.2 0 0 0
23-02-2021 14.4 (15:50) 2.1 (00:00) 8.2 4.72 (17:10) 2.78 (16:20) 0 0 0 0 0
22-02-2021 11.6 (03:20) 6.9 (00:00) 9.3 11.39 (03:00) 5.28 (03:00) 4 4 0 0 0
21-02-2021 12.1 (11:30) 6.2 (00:00) 9.2 14.44 (12:40) 6.39 (12:00) 1.2 0 0 0.2 1
20-02-2021 19.8 (13:40) 1.6 (00:00) 10.7 12.5 (16:10) 5.28 (20:00) 0 0 0 0 0
19-02-2021 19.5 (14:40) -0.3 (00:00) 9.6 7.78 (15:40) 4.44 (14:50) 0 0 0 0 0
18-02-2021 18.2 (16:20) 0.2 (00:00) 9.2 4.72 (11:40) 2.78 (11:40) 0 0 0 0 0
17-02-2021 17.3 (13:50) 3.8 (00:00) 10.5 5.83 (14:10) 2.5 (12:50) 0 0 0 0 0
16-02-2021 16 (15:50) -0.9 (-00:0) 7.6 4.44 (16:20) 2.5 (14:40) 0 0 0 0 0
15-02-2021 13.8 (13:30) 1.4 (00:00) 7.6 7.5 (14:10) 3.89 (15:40) 0 0 0 0 0
14-02-2021 11.9 (14:50) -0.7 (-00:0) 5.6 9.72 (15:30) 5.28 (12:30) 0 0 0 0 0
13-02-2021 14 (15:10) 4.9 (00:00) 9.5 12.22 (00:20) 5.83 (12:00) 0 0 0 0 0
12-02-2021 14.3 (12:50) 5.2 (00:00) 9.8 15 (22:20) 8.33 (21:50) 2 0 0 1.8 0.2
11-02-2021 17.4 (15:50) -0.7 (-00:0) 8.3 8.33 (13:50) 5 (14:10) 0 0 0 0 0
10-02-2021 12 (16:00) 1.7 (00:00) 6.9 14.44 (14:10) 8.61 (13:50) 1.6 0.4 1 0.2 0
09-02-2021 14.8 (17:00) 4.5 (00:00) 9.7 12.5 (18:20) 6.11 (18:30) 0 0 0 0 0
08-02-2021 12.7 (14:50) 1.2 (00:00) 6.9 13.33 (16:20) 6.11 (14:10) 4.8 0 4 0.8 0
07-02-2021 10.3 (16:40) 3.1 (00:00) 6.7 11.11 (14:00) 6.94 (14:10) 0 0 0 0 0
06-02-2021 15.1 (14:00) 4.7 (00:00) 9.9 7.78 (17:50) 4.17 (17:50) 4 0 0 3.4 0.6
05-02-2021 15.7 (10:50) 5.4 (00:00) 10.5 12.22 (11:10) 6.67 (11:10) 0 0 0 0 0
04-02-2021 18.3 (16:40) 5.4 (00:00) 11.8 5.28 (17:30) 3.33 (13:00) 0 0 0 0 0

Gráficas

Temp. máximas Temp. mínimas Temp. medias Precipitaciones Rachas de viento máximas Velocidades máximas media en intervalos de 10 minutos

Datos horarios

Fecha y hora oficial Temperatura (ºC) Velocidad del viento (km/h) Dirección del viento Racha (km/h) Dirección de racha Precipitación (mm) Presión (hPa) Tendencia (hPa) Humedad (%)
2021-03-05 23:00:00 7.4 0 Calma 4 Oeste 0 -- -- 94
2021-03-05 22:00:00 7.2 0 Calma 3 Oeste 0 -- -- 93
2021-03-05 21:00:00 7.4 0 Calma 4 Sudoeste 0 -- -- 89
2021-03-05 20:00:00 9 3 Sudoeste 9 Sudoeste 0 -- -- 83
2021-03-05 19:00:00 11.5 5 Sudoeste 8 Sudoeste 0 -- -- 76
2021-03-05 18:00:00 13 4 Noroeste 13 Norte 0 -- -- 70
2021-03-05 17:00:00 13.4 4 Norte 13 Oeste 0 -- -- 68
2021-03-05 16:00:00 13.5 6 Norte 13 Noroeste 0 -- -- 66
2021-03-05 15:00:00 13.8 4 Noroeste 18 Nordeste 0 -- -- 63
2021-03-05 14:00:00 13.2 6 Noroeste 20 Noroeste 0 -- -- 66
2021-03-05 13:00:00 12.6 9 Noroeste 15 Noroeste 0 -- -- 71
2021-03-05 12:00:00 12.2 6 Noroeste 13 Oeste 0 -- -- 74
2021-03-05 11:00:00 10.4 4 Noroeste 8 Noroeste 0 -- -- 84
2021-03-05 10:00:00 7.5 0 Calma 2 Noroeste 0 -- -- 97
2021-03-05 09:00:00 5.9 0 Calma 4 Oeste 0 -- -- 100
2021-03-05 08:00:00 5.3 0 Calma 4 Oeste 0 -- -- 100
2021-03-05 07:00:00 4.7 0 Calma 2 Noroeste 0 -- -- 100
2021-03-05 06:00:00 4.2 0 Calma 5 Oeste 0 -- -- 100
2021-03-05 05:00:00 3.3 0 Calma 3 Sudoeste 0 -- -- 99
2021-03-05 04:00:00 3.4 0 Calma 3 Sur 0 -- -- 97
2021-03-05 03:00:00 4.1 0 Calma 4 Sudoeste 0 -- -- 97
2021-03-05 02:00:00 4.7 0 Calma 6 Oeste 0 -- -- 97
2021-03-05 01:00:00 5.2 0 Calma -- -- 0 -- -- 97
2021-03-05 00:00:00 5.4 0 Calma -- -- 0 -- -- 96
2021-03-04 23:00:00 5.9 0 Calma 0 Calma 0 -- -- 94
2021-03-04 22:00:00 7 0 Calma 4 Oeste 0 -- -- 91
2021-03-04 21:00:00 8.5 0 Calma 5 Sudoeste 0 -- -- 88
2021-03-04 20:00:00 10 2 Sudoeste 9 Sudoeste 0 -- -- 84
2021-03-04 19:00:00 12 3 Sudoeste 11 Nordeste 0 -- -- 78
2021-03-04 18:00:00 13.3 6 Nordeste 12 Nordeste 0 -- -- 71
2021-03-04 17:00:00 14.1 5 Nordeste 17 Nordeste 0 -- -- 65
2021-03-04 16:00:00 14.1 6 Norte 14 Este 0 -- -- 65
2021-03-04 15:00:00 13.5 7 Nordeste 15 Este 0 -- -- 65
2021-03-04 14:00:00 13.4 8 Nordeste 17 Nordeste 0 -- -- 67
2021-03-04 13:00:00 12.8 5 Este 12 Este 0 -- -- 62
2021-03-04 12:00:00 11 3 Nordeste 8 Este 0 -- -- 74
2021-03-04 11:00:00 8.4 2 Oeste 4 Oeste 0 -- -- 82
2021-03-04 10:00:00 5.9 0 Calma 2 Oeste 0 -- -- 96
2021-03-04 09:00:00 3.4 0 Calma 3 Oeste 0 -- -- 100
2021-03-04 08:00:00 1.9 0 Calma 4 Sudoeste 0 -- -- 99
2021-03-04 07:00:00 2 2 Sudoeste 6 Sudoeste 0 -- -- 98
2021-03-04 06:00:00 2.4 0 Calma 4 Este 0 -- -- 98
2021-03-04 05:00:00 2.8 0 Calma 4 Sudeste 0 -- -- 98
2021-03-04 04:00:00 3 3 Oeste 4 Oeste 0 -- -- 97
2021-03-04 03:00:00 3.4 3 Nordeste 5 Nordeste 0 -- -- 97
2021-03-04 02:00:00 3.8 3 Oeste 5 Oeste 0 -- -- 95
2021-03-04 01:00:00 4.6 3 Oeste 5 Oeste 0 -- -- 93
2021-03-04 00:00:00 5.6 5 Este 10 Sudeste 0 -- -- 90
2021-03-03 23:00:00 6.6 0 Calma 6 Oeste 0 -- -- 88
2021-03-03 22:00:00 7.6 4 Oeste 5 Oeste 0 -- -- 87
2021-03-03 21:00:00 8.7 2 Sur 5 Oeste 0 -- -- 85
2021-03-03 20:00:00 10 3 Sudoeste 7 Sudoeste 0 -- -- 81
2021-03-03 19:00:00 12.1 2 Sur 5 Sudoeste 0 -- -- 81
2021-03-03 18:00:00 13.3 0 Calma 7 Noroeste 0 -- -- 79
2021-03-03 17:00:00 13.7 3 Nordeste 8 Este 0 -- -- 71
2021-03-03 16:00:00 13.7 5 Noroeste 10 Norte 0 -- -- 73
2021-03-03 15:00:00 13.7 4 Este 11 Este 0 -- -- 72
2021-03-03 14:00:00 13.3 5 Este 11 Nordeste 0 -- -- 74
2021-03-03 13:00:00 13.2 6 Nordeste 13 Nordeste 0 -- -- 76
2021-03-03 12:00:00 12.2 5 Nordeste 9 Nordeste 0 -- -- 79
2021-03-03 11:00:00 10.7 4 Noroeste 8 Noroeste 0 -- -- 89
2021-03-03 10:00:00 8.3 0 Calma -- -- 0 -- -- 100
2021-03-03 09:00:00 6.8 0 Calma -- -- 0 -- -- 100
2021-03-03 08:00:00 6.3 0 Calma -- -- 0 -- -- 99
2021-03-03 07:00:00 6.7 0 Calma -- -- 0 -- -- 98
2021-03-03 06:00:00 7.1 0 Calma -- -- 0 -- -- 98
2021-03-03 05:00:00 7.5 0 Calma -- -- 0 -- -- 97
2021-03-03 04:00:00 8 0 Calma 4 Sudoeste 0 -- -- 96
2021-03-03 03:00:00 8.6 2 Oeste 5 Sudoeste 0 -- -- 96
2021-03-03 02:00:00 9.2 0 Calma 5 Nordeste 0 -- -- 95
2021-03-03 01:00:00 9.5 2 Este 7 Sur 0 -- -- 94
2021-03-03 00:00:00 9.5 5 Sur 8 Sur 0 -- -- 96
2021-03-02 23:00:00 9.5 2 Este 8 Sur 0 -- -- 97
2021-03-02 22:00:00 9.5 3 Sur 5 Sudoeste 0 -- -- 97
2021-03-02 21:00:00 9.5 0 Calma 4 Oeste 0 -- -- 96
2021-03-02 20:00:00 9.7 0 Calma 5 Oeste 0 -- -- 95
2021-03-02 19:00:00 9.8 3 Oeste 5 Oeste 0 -- -- 94
2021-03-02 18:00:00 9.8 4 Oeste 5 Noroeste 0 -- -- 93
2021-03-02 17:00:00 9.8 0 Calma -- -- 0 -- -- 94
2021-03-02 16:00:00 9.8 0 Calma 5 Nordeste 0 -- -- 92
2021-03-02 15:00:00 9.7 3 Nordeste 10 Nordeste 0 -- -- 92
2021-03-02 14:00:00 9.9 6 Nordeste 13 Nordeste 0 -- -- 89
2021-03-02 13:00:00 10.1 7 Nordeste 14 Nordeste 0 -- -- 87
2021-03-02 12:00:00 9.8 6 Nordeste 14 Este 0 -- -- 88
2021-03-02 11:00:00 9 4 Este 9 Nordeste 0 -- -- 95
2021-03-02 10:00:00 8.5 0 Calma 9 Oeste 0 -- -- 97
2021-03-02 09:00:00 8.2 3 Oeste 8 Oeste 0 -- -- 96
2021-03-02 08:00:00 8.1 4 Oeste 8 Noroeste 0 -- -- 96
2021-03-02 07:00:00 8.2 4 Noroeste 7 Oeste 0 -- -- 95
2021-03-02 06:00:00 8.1 6 Noroeste 10 Oeste 0 -- -- 94
2021-03-02 05:00:00 8.1 5 Oeste 9 Oeste 0 -- -- 93
2021-03-02 04:00:00 8.2 3 Sur 9 Oeste 0 -- -- 92
2021-03-02 03:00:00 8.3 5 Oeste 8 Oeste 0 -- -- 91
2021-03-02 02:00:00 8.5 0 Calma 10 Oeste 0 -- -- 90
2021-03-02 01:00:00 8.5 5 Oeste 9 Oeste 0 -- -- 86
2021-03-02 00:00:00 9 3 Sudeste 16 Este 0 -- -- 83
2021-03-01 23:00:00 8.9 6 Este 13 Este 0 -- -- 83
2021-03-01 22:00:00 8.8 6 Este 12 Este 0 -- -- 86
2021-03-01 21:00:00 8.5 0 Calma 5 Oeste 0 -- -- 93
2021-03-01 20:00:00 8.9 2 Sur 10 Nordeste 0 -- -- 90
2021-03-01 19:00:00 9.1 5 Este 15 Este 0 -- -- 85
2021-03-01 18:00:00 9.3 8 Este 18 Este 0 -- -- 84
2021-03-01 17:00:00 9.5 8 Este 14 Nordeste 0 -- -- 85
2021-03-01 16:00:00 9.8 5 Sudeste 21 Este 0 -- -- 85
2021-03-01 15:00:00 10.2 7 Este 24 Sudeste 0 -- -- 81
2021-03-01 14:00:00 9.8 8 Este 16 Sudeste 0 -- -- 84
2021-03-01 13:00:00 9.6 8 Este 14 Nordeste 0 -- -- 84
2021-03-01 12:00:00 9.5 6 Este 15 Este 0 -- -- 86
2021-03-01 11:00:00 9.1 8 Este 16 Este 0 -- -- 88
2021-03-01 10:00:00 7.8 3 Nordeste 8 Norte 0 -- -- 94
2021-03-01 09:00:00 7.3 4 Oeste 9 Oeste 0 -- -- 93
2021-03-01 08:00:00 7 4 Oeste 6 Oeste 0 -- -- 92
2021-03-01 07:00:00 7.2 4 Oeste 8 Oeste 0 -- -- 90
2021-03-01 06:00:00 7.6 4 Oeste 8 Oeste 0 -- -- 85
2021-03-01 05:00:00 8.7 4 Este 15 Sudeste 0 -- -- 76
2021-03-01 04:00:00 8.6 6 Sudeste 21 Sudeste 0 -- -- 80
2021-03-01 03:00:00 5.4 3 Oeste 6 Oeste 0 -- -- 97
2021-03-01 02:00:00 4.7 4 Oeste 7 Oeste 0 -- -- 97
2021-03-01 01:00:00 4 3 Oeste 8 Oeste 0 -- -- 98
2021-03-01 00:00:00 3.7 5 Oeste 9 Oeste 0 -- -- 98
2021-02-28 23:00:00 3.1 3 Noroeste 9 Oeste 0 -- -- 96
2021-02-28 22:00:00 3.7 0 Calma -- -- 0 -- -- 92
2021-02-28 21:00:00 5.7 0 Calma 5 Sudoeste 0 -- -- 86
2021-02-28 20:00:00 8.1 2 Sur 22 Sudeste 0 -- -- 78
2021-02-28 19:00:00 9.6 9 Sudeste 28 Sudeste 0 -- -- 73
2021-02-28 18:00:00 10.5 7 Sudeste 27 Este 0 -- -- 71
2021-02-28 17:00:00 11 16 Este 29 Este 0 -- -- 69
2021-02-28 16:00:00 10.8 12 Este 28 Sudeste 0 -- -- 71
2021-02-28 15:00:00 10.6 12 Sudeste 32 Sudeste 0 -- -- 72
2021-02-28 14:00:00 11.3 13 Este 27 Este 0 -- -- 69
2021-02-28 13:00:00 11.8 11 Sudeste 31 Este 0 -- -- 67
2021-02-28 12:00:00 11.7 15 Sudeste 29 Sudeste 0 -- -- 69
2021-02-28 11:00:00 10.9 14 Sudeste 25 Sudeste 0 -- -- 73
2021-02-28 10:00:00 8.3 3 Este 8 Este 0 -- -- 84
2021-02-28 09:00:00 5.9 6 Oeste 13 Noroeste 0 -- -- 94
2021-02-28 08:00:00 5.3 0 Calma 4 Sudoeste 0 -- -- 97
2021-02-28 07:00:00 5.2 0 Calma 8 Sur 0 -- -- 97
2021-02-28 06:00:00 5.3 0 Calma -- -- 0 -- -- 99
2021-02-28 05:00:00 5.2 0 Calma -- -- 0 -- -- 99
2021-02-28 04:00:00 5 0 Calma -- -- 0 -- -- 99
2021-02-28 03:00:00 5 0 Calma -- -- 0 -- -- 99
2021-02-28 02:00:00 4.6 0 Calma 2 Norte 0 -- -- 99
2021-02-28 01:00:00 3.8 0 Calma 8 Oeste 0 -- -- 98
2021-02-28 00:00:00 3.9 0 Calma 4 Nordeste 0 -- -- 97
2021-02-27 23:00:00 4.2 2 Oeste 4 Oeste 0 -- -- 94
2021-02-27 22:00:00 5.2 0 Calma 4 Sudoeste 0 -- -- 91
2021-02-27 21:00:00 6.9 0 Calma 4 Sur 0 -- -- 87
2021-02-27 20:00:00 8.9 0 Calma 6 Sudoeste 0 -- -- 82
2021-02-27 19:00:00 11.2 4 Sudoeste 9 Sudoeste 0 -- -- 75
2021-02-27 18:00:00 13.8 6 Noroeste 15 Noroeste 0 -- -- 64
2021-02-27 17:00:00 14.4 9 Noroeste 20 Oeste 0 -- -- 60
2021-02-27 16:00:00 14.1 10 Noroeste 18 Oeste 0 -- -- 63
2021-02-27 15:00:00 13.5 6 Noroeste 19 Oeste 0 -- -- 64
2021-02-27 14:00:00 12.8 6 Norte 18 Oeste 0 -- -- 69
2021-02-27 13:00:00 11.8 10 Noroeste 19 Oeste 0 -- -- 71
2021-02-27 12:00:00 10.6 8 Oeste 17 Oeste 0 -- -- 76
2021-02-27 11:00:00 9.1 8 Noroeste 13 Noroeste 0 -- -- 96
2021-02-27 10:00:00 6.2 0 Calma -- -- 0 -- -- 100
2021-02-27 09:00:00 3.8 0 Calma -- -- 0 -- -- 100
2021-02-27 08:00:00 2.4 0 Calma -- -- 0 -- -- 100
2021-02-27 07:00:00 2.7 0 Calma 0 Calma 0 -- -- 100
2021-02-27 06:00:00 3.1 0 Calma -- -- 0 -- -- 100
2021-02-27 05:00:00 2.7 0 Calma -- -- 0 -- -- 100
2021-02-27 04:00:00 2.3 0 Calma -- -- 0 -- -- 99
2021-02-27 03:00:00 2.5 0 Calma -- -- 0 -- -- 98
2021-02-27 02:00:00 3.2 0 Calma -- -- 0 -- -- 98
2021-02-27 01:00:00 3.7 0 Calma 3 Oeste 0 -- -- 97
2021-02-27 00:00:00 4.4 0 Calma 3 Sudoeste 0 -- -- 96
2021-02-26 23:00:00 5.2 0 Calma 5 Oeste 0 -- -- 95
2021-02-26 22:00:00 6.2 3 Oeste 4 Oeste 0 -- -- 93
2021-02-26 21:00:00 7.7 0 Calma 4 Sudoeste 0 -- -- 90
2021-02-26 20:00:00 9.3 0 Calma 7 Sudoeste 0 -- -- 87
2021-02-26 19:00:00 11.3 4 Sudoeste 9 Noroeste 0 -- -- 82
2021-02-26 18:00:00 12.9 3 Noroeste 12 Este 0 -- -- 78
2021-02-26 17:00:00 13.9 6 Norte 13 Norte 0 -- -- 74
2021-02-26 16:00:00 14.1 5 Norte 14 Este 0 -- -- 72
2021-02-26 15:00:00 14.3 9 Norte 17 Noroeste 0 -- -- 71
2021-02-26 14:00:00 14.2 6 Noroeste 14 Sudeste 0 -- -- 70
2021-02-26 13:00:00 13 6 Sudeste 13 Nordeste 0 -- -- 74
2021-02-26 12:00:00 11.3 4 Este 12 Sudoeste 0 -- -- 79
2021-02-26 11:00:00 10.1 7 Sur 14 Sudeste 0 -- -- 85
2021-02-26 10:00:00 8.5 7 Sudoeste 13 Sur 0 -- -- 97
2021-02-26 09:00:00 6.9 0 Calma 4 Oeste 0 -- -- 100
2021-02-26 08:00:00 6.2 4 Oeste 6 Oeste 0 -- -- 100
2021-02-26 07:00:00 5.7 0 Calma 5 Oeste 0 -- -- 100
2021-02-26 06:00:00 5.2 2 Oeste 5 Oeste 0 -- -- 100
2021-02-26 05:00:00 4.6 0 Calma -- -- 0 -- -- 100
2021-02-26 04:00:00 3.7 0 Calma -- -- 0 -- -- 100
2021-02-26 03:00:00 2.9 0 Calma 4 Este 0 -- -- 98
2021-02-26 02:00:00 3.3 0 Calma 5 Sudoeste 0 -- -- 98
2021-02-26 01:00:00 3.9 0 Calma 4 Oeste 0 -- -- 97
2021-02-26 00:00:00 4.7 0 Calma 4 Sudeste 0 -- -- 96
2021-02-25 23:00:00 5.7 0 Calma 4 Sudoeste 0 -- -- 95
2021-02-25 22:00:00 6.6 0 Calma 5 Sudoeste 0 -- -- 93
2021-02-25 21:00:00 8 0 Calma 6 Oeste 0 -- -- 90
2021-02-25 20:00:00 9.9 0 Calma 7 Sudoeste 0 -- -- 86
2021-02-25 19:00:00 12.3 3 Sudeste 9 Nordeste 0 -- -- 79
2021-02-25 18:00:00 14.8 6 Norte 13 Nordeste 0 -- -- 73
2021-02-25 17:00:00 15.8 4 Nordeste 14 Nordeste 0 -- -- 67
2021-02-25 16:00:00 16.1 5 Noroeste 16 Noroeste 0 -- -- 67
2021-02-25 15:00:00 16 8 Noroeste 16 Noroeste 0 -- -- 67
2021-02-25 14:00:00 14.9 6 Este 18 Nordeste 0 -- -- 66
2021-02-25 13:00:00 13.9 8 Noroeste 16 Oeste 0 -- -- 69
2021-02-25 12:00:00 12.5 4 Sudeste 11 Oeste 0 -- -- 69
2021-02-25 11:00:00 9.4 0 Calma -- -- 0 -- -- 83
2021-02-25 10:00:00 4.6 0 Calma -- -- 0 -- -- 100
2021-02-25 09:00:00 1.4 0 Calma -- -- 0 -- -- 100
2021-02-25 08:00:00 0.1 0 Calma -- -- 0 -- -- 100
2021-02-25 07:00:00 0.4 0 Calma -- -- 0 -- -- 100
2021-02-25 06:00:00 0.6 0 Calma 4 Nordeste 0 -- -- 99
2021-02-25 05:00:00 0.7 3 Oeste 6 Oeste 0 -- -- 99
2021-02-25 04:00:00 1.1 0 Calma 4 Oeste 0 -- -- 98
2021-02-25 03:00:00 1.5 0 Calma 5 Oeste 0 -- -- 98
2021-02-25 02:00:00 1.9 0 Calma -- -- 0 -- -- 97
2021-02-25 01:00:00 2.4 0 Calma -- -- 0 -- -- 96
2021-02-25 00:00:00 3.2 0 Calma -- -- 0 -- -- 95
2021-02-24 23:00:00 4.1 0 Calma 7 Oeste 0 -- -- 93
2021-02-24 22:00:00 5.4 0 Calma 6 Oeste 0 -- -- 89
2021-02-24 21:00:00 6.5 3 Sudoeste 7 Sudoeste 0 -- -- 84
2021-02-24 20:00:00 8.5 4 Sur 9 Sudoeste 0 -- -- 79
2021-02-24 19:00:00 11.4 4 Sur 12 Nordeste 0 -- -- 72
2021-02-24 18:00:00 13.9 10 Sudeste 23 Este 0 -- -- 62
2021-02-24 17:00:00 16 12 Sudeste 22 Este 0 -- -- 62
2021-02-24 16:00:00 16.1 11 Nordeste 21 Nordeste 0 -- -- 63
2021-02-24 15:00:00 17.1 6 Este 22 Nordeste 0 -- -- 62
2021-02-24 14:00:00 16.4 10 Este 20 Este 0 -- -- 60
2021-02-24 13:00:00 16.1 12 Sudeste 20 Este 0 -- -- 62
2021-02-24 12:00:00 14.1 8 Este 15 Este 0 -- -- 71
2021-02-24 11:00:00 10.3 0 Calma -- -- 0 -- -- 98
2021-02-24 10:00:00 6.2 0 Calma -- -- 0 -- -- 100
2021-02-24 09:00:00 2.9 0 Calma -- -- 0 -- -- 100
2021-02-24 08:00:00 2 0 Calma -- -- 0 -- -- 99
2021-02-24 07:00:00 2.5 0 Calma 4 Oeste 0 -- -- 99
2021-02-24 06:00:00 3 0 Calma 4 Nordeste 0 -- -- 99
2021-02-24 05:00:00 3.4 3 Oeste 5 Oeste 0 -- -- 99
2021-02-24 04:00:00 3.8 0 Calma 7 Oeste 0 -- -- 99
2021-02-24 03:00:00 4.3 0 Calma 5 Sur 1 -- -- 99
2021-02-24 02:00:00 4.5 2 Oeste 6 Sur 0.2 -- -- 98
2021-02-24 01:00:00 4.7 2 Sudeste 4 Sur 0 -- -- 97
2021-02-24 00:00:00 4.8 0 Calma 3 Sur 0 -- -- 95
2021-02-23 23:00:00 5.6 0 Calma 5 Sur 0 -- -- 93
2021-02-23 22:00:00 6.7 2 Oeste 10 Sudoeste 0 -- -- 90
2021-02-23 21:00:00 8.1 3 Sur 9 Sudoeste 0 -- -- 86
2021-02-23 20:00:00 9.5 3 Sudeste 6 Sur 0 -- -- 83
2021-02-23 19:00:00 11.7 3 Sudeste 12 Nordeste 0 -- -- 75
2021-02-23 18:00:00 13.6 7 Nordeste 17 Nordeste 0 -- -- 65
2021-02-23 17:00:00 14.4 9 Nordeste 17 Nordeste 0 -- -- 65
2021-02-23 16:00:00 14.4 8 Nordeste 17 Nordeste 0 -- -- 66
2021-02-23 15:00:00 13.9 6 Nordeste 15 Nordeste 0 -- -- 66
2021-02-23 14:00:00 13.4 8 Nordeste 16 Nordeste 0 -- -- 72
2021-02-23 13:00:00 12.2 8 Nordeste 16 Nordeste 0 -- -- 75
2021-02-23 12:00:00 10.4 3 Este 8 Nordeste 0 -- -- 79
2021-02-23 11:00:00 8.4 2 Sudeste 6 Este 0 -- -- 81
2021-02-23 10:00:00 5 0 Calma 5 Sur 0 -- -- 100
2021-02-23 09:00:00 2.7 5 Sur 8 Oeste 0 -- -- 100
2021-02-23 08:00:00 2.3 0 Calma -- -- 0 -- -- 98
2021-02-23 07:00:00 2.5 0 Calma -- -- 0 -- -- 97
2021-02-23 06:00:00 3.6 0 Calma 0 Calma 0 -- -- 95
2021-02-23 05:00:00 5.3 0 Calma 4 Oeste 0 -- -- 93
2021-02-23 04:00:00 6.3 0 Calma 4 Sudoeste 0 -- -- 92
2021-02-23 03:00:00 6.6 0 Calma 5 Oeste 0 -- -- 92
2021-02-23 02:00:00 6.8 4 Oeste 5 Oeste 0 -- -- 91
2021-02-23 01:00:00 7.1 2 Oeste 6 Sur 0 -- -- 90
2021-02-23 00:00:00 7.1 3 Sur 10 Sudeste 0 -- -- 88
2021-02-22 23:00:00 7.1 0 Calma 8 Oeste 0 -- -- 91
2021-02-22 22:00:00 7.1 2 Sudoeste 9 Oeste 0 -- -- 91
2021-02-22 21:00:00 7.4 5 Oeste 9 Oeste 0 -- -- 89
2021-02-22 20:00:00 7.6 4 Noroeste 9 Oeste 0 -- -- 89
2021-02-22 19:00:00 7.7 3 Sudoeste 9 Oeste 0 -- -- 87
2021-02-22 18:00:00 7.9 3 Noroeste 9 Oeste 0 -- -- 86
2021-02-22 17:00:00 8 3 Noroeste 10 Noroeste 0 -- -- 85
2021-02-22 16:00:00 7.7 6 Noroeste 12 Oeste 0 -- -- 86
2021-02-22 15:00:00 7.5 6 Oeste 13 Oeste 0 -- -- 91
2021-02-22 14:00:00 6.9 5 Oeste 14 Oeste 0 -- -- 94
2021-02-22 13:00:00 7.4 5 Noroeste 13 Oeste 0 -- -- 89
2021-02-22 12:00:00 7.5 9 Noroeste 17 Oeste 0 -- -- 87
2021-02-22 11:00:00 8.3 10 Noroeste 19 Noroeste 0 -- -- 84
2021-02-22 10:00:00 8.5 4 Noroeste 9 Sudeste 0 -- -- 97
2021-02-22 09:00:00 8.1 2 Sudeste 10 Oeste 0 -- -- 98
2021-02-22 08:00:00 7.6 4 Oeste 14 Oeste 0 -- -- 98
2021-02-22 07:00:00 7.1 5 Oeste 10 Oeste 0 -- -- 97
2021-02-22 06:00:00 7.4 3 Oeste 8 Sudoeste 0 -- -- 95
2021-02-22 05:00:00 8.6 3 Sudoeste 28 Sudeste 0 -- -- 89
2021-02-22 04:00:00 10.6 12 Sur 38 Sudeste 2 -- -- 79
2021-02-22 03:00:00 11.4 19 Sudeste 41 Sudeste 1.8 -- -- 89
2021-02-22 02:00:00 11.3 10 Oeste 37 Este 0 -- -- 90
2021-02-22 01:00:00 10.9 9 Este 22 Sudeste 0.2 -- -- 92
2021-02-22 00:00:00 10.7 8 Este 17 Nordeste 0.2 -- -- 94
2021-02-21 23:00:00 10.7 3 Sur 17 Este 0.2 -- -- 93
2021-02-21 22:00:00 10.8 12 Este 26 Este 0.6 -- -- 94
2021-02-21 21:00:00 11.3 12 Este 37 Este 0 -- -- 90
2021-02-21 20:00:00 11.1 16 Este 37 Sudeste 0 -- -- 90
2021-02-21 19:00:00 10.8 15 Este 36 Este 0 -- -- 92
2021-02-21 18:00:00 10.9 20 Este 44 Este 0.2 -- -- 90
2021-02-21 17:00:00 10.7 18 Este 37 Este 0 -- -- 91
2021-02-21 16:00:00 11 21 Este 42 Sudeste 0 -- -- 87
2021-02-21 15:00:00 10.9 16 Este 44 Sudeste 0 -- -- 88
2021-02-21 14:00:00 10.5 15 Este 32 Este 0 -- -- 91
2021-02-21 13:00:00 10.9 15 Este 52 Este 0 -- -- 86
2021-02-21 12:00:00 11.8 23 Este 43 Este 0 -- -- 76
2021-02-21 11:00:00 11.9 18 Este 45 Sudeste 0 -- -- 73
2021-02-21 10:00:00 11.8 12 Sudeste 23 Sudeste 0 -- -- 71
2021-02-21 09:00:00 10.3 8 Este 22 Este 0 -- -- 77
2021-02-21 08:00:00 10.5 18 Sudeste 38 Sudeste 0 -- -- 71
2021-02-21 07:00:00 8.8 15 Este 30 Sudeste 0 -- -- 78
2021-02-21 06:00:00 6.6 3 Oeste 9 Sudeste 0 -- -- 85
2021-02-21 05:00:00 7.2 4 Sur 9 Sudoeste 0 -- -- 84
2021-02-21 04:00:00 6.3 2 Sudoeste 5 Sur 0 -- -- 80
2021-02-21 03:00:00 7.1 3 Oeste 8 Noroeste 0 -- -- 74
2021-02-21 02:00:00 8.6 3 Oeste 16 Este 0 -- -- 66
2021-02-21 01:00:00 10.3 8 Este 27 Este 0 -- -- 59
2021-02-21 00:00:00 11.4 16 Sudeste 34 Este 0 -- -- 55
2021-02-20 23:00:00 11.6 11 Este 32 Sudeste 0 -- -- 46
2021-02-20 22:00:00 11.8 16 Este 35 Este 0 -- -- 49
2021-02-20 21:00:00 11.7 16 Sudeste 35 Sudeste 0 -- -- 53
2021-02-20 20:00:00 11.9 19 Sudeste 43 Sudeste 0 -- -- 53
2021-02-20 19:00:00 12.7 17 Sudeste 39 Sudeste 0 -- -- 52
2021-02-20 18:00:00 14.5 14 Sudeste 33 Sudeste 0 -- -- 44
2021-02-20 17:00:00 16.9 8 Sudeste 45 Sur 0 -- -- 37
2021-02-20 16:00:00 18.6 15 Sudeste 33 Sur 0 -- -- 29
2021-02-20 15:00:00 19.3 9 Sur 36 Sur 0 -- -- 30
2021-02-20 14:00:00 19.5 12 Sudeste 31 Sur 0 -- -- 29
2021-02-20 13:00:00 19.3 8 Sudeste 30 Este 0 -- -- 27
2021-02-20 12:00:00 18.7 6 Norte 24 Sur 0 -- -- 30
2021-02-20 11:00:00 18.5 9 Sur 26 Sur 0 -- -- 28
2021-02-20 10:00:00 14.4 5 Nordeste 16 Sur 0 -- -- 39
2021-02-20 09:00:00 5.5 5 Oeste 10 Noroeste 0 -- -- 79
2021-02-20 08:00:00 2 5 Oeste 11 Noroeste 0 -- -- 90
2021-02-20 07:00:00 2.3 3 Oeste 12 Oeste 0 -- -- 91
2021-02-20 06:00:00 1.8 4 Oeste 10 Oeste 0 -- -- 93
2021-02-20 05:00:00 2.2 0 Calma 9 Oeste 0 -- -- 92
2021-02-20 04:00:00 2.4 4 Oeste 10 Oeste 0 -- -- 91
2021-02-20 03:00:00 3.1 4 Oeste 6 Oeste 0 -- -- 89
2021-02-20 02:00:00 3.9 0 Calma 5 Oeste 0 -- -- 85
2021-02-20 01:00:00 4.7 0 Calma 5 Oeste 0 -- -- 80
2021-02-20 00:00:00 5.6 2 Nordeste 5 Oeste 0 -- -- 77
2021-02-19 23:00:00 7.8 0 Calma 5 Oeste 0 -- -- 67
2021-02-19 22:00:00 11 3 Oeste 8 Sudoeste 0 -- -- 56
2021-02-19 21:00:00 14.2 3 Oeste 16 Sudoeste 0 -- -- 44
2021-02-19 20:00:00 14.6 5 Sudeste 19 Sudeste 0 -- -- 44
2021-02-19 19:00:00 14 5 Sudeste 12 Sudeste 0 -- -- 52
2021-02-19 18:00:00 16.8 5 Sudeste 17 Sudeste 0 -- -- 44
2021-02-19 17:00:00 18.5 10 Sudeste 23 Sudeste 0 -- -- 40
2021-02-19 16:00:00 19.3 11 Sudeste 28 Sudeste 0 -- -- 36
2021-02-19 15:00:00 19.5 14 Sudeste 26 Este 0 -- -- 33
2021-02-19 14:00:00 19 12 Sudeste 22 Sudeste 0 -- -- 34
2021-02-19 13:00:00 17.8 5 Este 16 Este 0 -- -- 39
2021-02-19 12:00:00 15.1 0 Calma 5 Sur 0 -- -- 41
2021-02-19 11:00:00 10.5 0 Calma -- -- 0 -- -- 62
2021-02-19 10:00:00 4.3 0 Calma -- -- 0 -- -- 97
2021-02-19 09:00:00 0.6 0 Calma -- -- 0 -- -- 99
2021-02-19 08:00:00 -0.3 0 Calma -- -- 0 -- -- 98
2021-02-19 07:00:00 0 0 Calma -- -- 0 -- -- 98
2021-02-19 06:00:00 0.3 0 Calma -- -- 0 -- -- 97
2021-02-19 05:00:00 0.7 0 Calma -- -- 0 -- -- 97
2021-02-19 04:00:00 0.9 0 Calma -- -- 0 -- -- 96
2021-02-19 03:00:00 1.5 0 Calma 0 Calma 0 -- -- 95
2021-02-19 02:00:00 2.1 0 Calma 2 Oeste 0 -- -- 94
2021-02-19 01:00:00 2.7 0 Calma 4 Oeste 0 -- -- 93
2021-02-19 00:00:00 3.5 0 Calma 5 Oeste 0 -- -- 91
2021-02-18 23:00:00 4.4 0 Calma 5 Sudoeste 0 -- -- 88
2021-02-18 22:00:00 5.6 0 Calma 6 Oeste 0 -- -- 83
2021-02-18 21:00:00 7 4 Oeste 9 Oeste 0 -- -- 78
2021-02-18 20:00:00 9.7 3 Oeste 8 Sudoeste 0 -- -- 66
2021-02-18 19:00:00 12.9 0 Calma 6 Sudoeste 0 -- -- 59
2021-02-18 18:00:00 16.3 2 Sur 10 Norte 0 -- -- 52
2021-02-18 17:00:00 17.9 6 Norte 15 Nordeste 0 -- -- 35
2021-02-18 16:00:00 17.9 5 Nordeste 13 Nordeste 0 -- -- 39
2021-02-18 15:00:00 17.8 6 Nordeste 15 Norte 0 -- -- 53
2021-02-18 14:00:00 17.3 5 Norte 14 Oeste 0 -- -- 47
2021-02-18 13:00:00 16 8 Noroeste 15 Este 0 -- -- 57
2021-02-18 12:00:00 14.5 5 Oeste 17 Oeste 0 -- -- 54
2021-02-18 11:00:00 10.7 2 Oeste 5 Oeste 0 -- -- 65
2021-02-18 10:00:00 4.8 0 Calma 4 Este 0 -- -- 99
2021-02-18 09:00:00 1 0 Calma 4 Oeste 0 -- -- 100
2021-02-18 08:00:00 0.4 0 Calma 4 Oeste 0 -- -- 99
2021-02-18 07:00:00 0.5 0 Calma 4 Oeste 0 -- -- 99
2021-02-18 06:00:00 0.9 0 Calma 4 Oeste 0 -- -- 98
2021-02-18 05:00:00 1.1 0 Calma 3 Noroeste 0 -- -- 98
2021-02-18 04:00:00 1.6 0 Calma 5 Oeste 0 -- -- 97
2021-02-18 03:00:00 2.5 0 Calma 3 Sudoeste 0 -- -- 97
2021-02-18 02:00:00 3.2 2 Oeste 5 Oeste 0 -- -- 96
2021-02-18 01:00:00 4.1 0 Calma 4 Sudoeste 0 -- -- 95
2021-02-18 00:00:00 5 0 Calma 4 Sudoeste 0 -- -- 95
2021-02-17 23:00:00 5.9 0 Calma 4 Sur 0 -- -- 93
2021-02-17 22:00:00 7.1 0 Calma 6 Sur 0 -- -- 90
2021-02-17 21:00:00 8.6 0 Calma 5 Sudoeste 0 -- -- 87
2021-02-17 20:00:00 10.3 3 Este 7 Sudoeste 0 -- -- 82
2021-02-17 19:00:00 12.6 5 Sudoeste 9 Sudoeste 0 -- -- 73
2021-02-17 18:00:00 15.4 0 Calma 13 Este 0 -- -- 67
2021-02-17 17:00:00 16.5 4 Nordeste 11 Nordeste 0 -- -- 60
2021-02-17 16:00:00 16.8 6 Nordeste 15 Este 0 -- -- 53
2021-02-17 15:00:00 17.2 6 Nordeste 21 Este 0 -- -- 55
2021-02-17 14:00:00 17.2 8 Este 18 Nordeste 0 -- -- 54
2021-02-17 13:00:00 16.6 8 Nordeste 17 Nordeste 0 -- -- 53
2021-02-17 12:00:00 14.7 0 Calma -- -- 0 -- -- 57
2021-02-17 11:00:00 10.6 0 Calma -- -- 0 -- -- 78
2021-02-17 10:00:00 7 0 Calma -- -- 0 -- -- 100
2021-02-17 09:00:00 4.4 0 Calma 0 Calma 0 -- -- 100
2021-02-17 08:00:00 3.9 0 Calma 2 Oeste 0 -- -- 99
2021-02-17 07:00:00 4 0 Calma 3 Oeste 0 -- -- 99
2021-02-17 06:00:00 4.1 0 Calma 4 Oeste 0 -- -- 99
2021-02-17 05:00:00 4.2 0 Calma 4 Oeste 0 -- -- 99
2021-02-17 04:00:00 4.3 0 Calma 4 Oeste 0 -- -- 98
2021-02-17 03:00:00 4.5 0 Calma 4 Sudoeste 0 -- -- 98
2021-02-17 02:00:00 4.8 0 Calma 4 Oeste 0 -- -- 98
2021-02-17 01:00:00 5.1 0 Calma 4 Oeste 0 -- -- 97
2021-02-17 00:00:00 5.6 3 Oeste 5 Este 0 -- -- 97
2021-02-16 23:00:00 5.9 5 Este 8 Este 0 -- -- 97
2021-02-16 22:00:00 6.1 0 Calma 5 Sudeste 0 -- -- 95
2021-02-16 21:00:00 7.1 3 Oeste 9 Oeste 0 -- -- 92
2021-02-16 20:00:00 8.8 0 Calma 6 Sudoeste 0 -- -- 88
2021-02-16 19:00:00 11.3 0 Calma 10 Sudoeste 0 -- -- 81
2021-02-16 18:00:00 14.1 3 Sur 12 Este 0 -- -- 73
2021-02-16 17:00:00 15.9 5 Este 16 Nordeste 0 -- -- 64
2021-02-16 16:00:00 15.9 6 Este 15 Este 0 -- -- 65
2021-02-16 15:00:00 15.2 5 Nordeste 14 Nordeste 0 -- -- 66
2021-02-16 14:00:00 13.8 2 Este 8 Nordeste 0 -- -- 67
2021-02-16 13:00:00 12.4 6 Sudeste 10 Sudeste 0 -- -- 71
2021-02-16 12:00:00 10.5 4 Sudeste 8 Este 0 -- -- 80
2021-02-16 11:00:00 6.5 0 Calma 0 Calma 0 -- -- 100
2021-02-16 10:00:00 2.8 0 Calma -- -- 0 -- -- 100
2021-02-16 09:00:00 -0.1 0 Calma -- -- 0 -- -- 100
2021-02-16 08:00:00 -0.8 0 Calma -- -- 0 -- -- 99
2021-02-16 07:00:00 -0.5 0 Calma -- -- 0 -- -- 99
2021-02-16 06:00:00 0 0 Calma -- -- 0 -- -- 99
2021-02-16 05:00:00 0.6 0 Calma -- -- 0 -- -- 99
2021-02-16 04:00:00 1.1 0 Calma -- -- 0 -- -- 99
2021-02-16 03:00:00 1.6 0 Calma -- -- 0 -- -- 99
2021-02-16 02:00:00 1.9 0 Calma 2 Sudeste 0 -- -- 98
2021-02-16 01:00:00 2.5 0 Calma 4 Oeste 0 -- -- 97
2021-02-16 00:00:00 3.2 0 Calma 4 Oeste 0 -- -- 97
2021-02-15 23:00:00 3.7 2 Oeste 7 Oeste 0 -- -- 96
2021-02-15 22:00:00 4.7 3 Oeste 5 Sudoeste 0 -- -- 95
2021-02-15 21:00:00 5.7 3 Sudoeste 6 Sudoeste 0 -- -- 91
2021-02-15 20:00:00 7.3 3 Oeste 7 Sudeste 0 -- -- 86
2021-02-15 19:00:00 9.6 4 Sudeste 13 Este 0 -- -- 78
2021-02-15 18:00:00 11.4 6 Sudeste 20 Sudeste 0 -- -- 70
2021-02-15 17:00:00 12.7 10 Sudeste 23 Este 0 -- -- 67
2021-02-15 16:00:00 13.1 11 Sudeste 24 Este 0 -- -- 67
2021-02-15 15:00:00 13.8 12 Sudeste 27 Sudeste 0 -- -- 63
2021-02-15 14:00:00 13.3 14 Sudeste 24 Este 0 -- -- 64
2021-02-15 13:00:00 13.7 12 Sudeste 24 Este 0 -- -- 63
2021-02-15 12:00:00 12.8 12 Sudeste 22 Este 0 -- -- 66
2021-02-15 11:00:00 10.8 8 Este 18 Sudeste 0 -- -- 76
2021-02-15 10:00:00 6.1 3 Oeste 4 Oeste 0 -- -- 100
2021-02-15 09:00:00 2.2 2 Noroeste 8 Oeste 0 -- -- 100
2021-02-15 08:00:00 1.5 2 Oeste 7 Oeste 0 -- -- 99
2021-02-15 07:00:00 1.9 3 Oeste 8 Oeste 0 -- -- 98
2021-02-15 06:00:00 2.5 2 Oeste 6 Oeste 0 -- -- 97
2021-02-15 05:00:00 3.2 3 Oeste 8 Oeste 0 -- -- 97
2021-02-15 04:00:00 3.7 2 Oeste 7 Oeste 0 -- -- 97
2021-02-15 03:00:00 3.3 0 Calma 8 Oeste 0 -- -- 96
2021-02-15 02:00:00 3.4 3 Oeste 10 Sudoeste 0 -- -- 93
2021-02-15 01:00:00 5.2 4 Sudoeste 10 Sudoeste 0 -- -- 87
2021-02-15 00:00:00 7.2 6 Este 21 Este 0 -- -- 82
2021-02-14 23:00:00 7.2 8 Este 19 Sudeste 0 -- -- 82
2021-02-14 22:00:00 6.7 8 Sudeste 18 Sudeste 0 -- -- 84
2021-02-14 21:00:00 6.4 4 Sudeste 10 Este 0 -- -- 84
2021-02-14 20:00:00 7.6 7 Este 19 Sudeste 0 -- -- 79
2021-02-14 19:00:00 8 10 Este 23 Este 0 -- -- 78
2021-02-14 18:00:00 9.4 13 Este 24 Este 0 -- -- 75
2021-02-14 17:00:00 10.7 11 Este 29 Este 0 -- -- 71
2021-02-14 16:00:00 11.3 13 Este 35 Este 0 -- -- 69
2021-02-14 15:00:00 11.8 14 Este 29 Este 0 -- -- 68
2021-02-14 14:00:00 11 13 Este 30 Este 0 -- -- 71
2021-02-14 13:00:00 10.8 17 Este 33 Sudeste 0 -- -- 71
2021-02-14 12:00:00 10.5 16 Sudeste 30 Este 0 -- -- 74
2021-02-14 11:00:00 8.4 9 Sudeste 23 Este 0 -- -- 96
2021-02-14 10:00:00 2.4 0 Calma 8 Sudoeste 0 -- -- 100
2021-02-14 09:00:00 0.2 9 Sur 15 Sudoeste 0 -- -- 100
2021-02-14 08:00:00 -0.6 0 Calma 4 Oeste 0 -- -- 99
2021-02-14 07:00:00 -0.3 0 Calma 5 Oeste 0 -- -- 98
2021-02-14 06:00:00 0 0 Calma 4 Oeste 0 -- -- 98
2021-02-14 05:00:00 0.6 0 Calma 4 Noroeste 0 -- -- 97
2021-02-14 04:00:00 1.2 0 Calma 5 Oeste 0 -- -- 97
2021-02-14 03:00:00 1.7 0 Calma 7 Oeste 0 -- -- 96
2021-02-14 02:00:00 2.6 0 Calma 4 Sur 0 -- -- 94
2021-02-14 01:00:00 3.6 3 Oeste 5 Oeste 0 -- -- 92
2021-02-14 00:00:00 4.9 0 Calma 5 Sudeste 0 -- -- 88
2021-02-13 23:00:00 6.7 3 Sudoeste 6 Sudoeste 0 -- -- 82
2021-02-13 22:00:00 9.2 3 Sur 16 Sudoeste 0 -- -- 74
2021-02-13 21:00:00 9.7 5 Sudoeste 12 Sudoeste 0 -- -- 76
2021-02-13 20:00:00 10 0 Calma 10 Sudoeste 0 -- -- 76
2021-02-13 19:00:00 11.2 3 Noroeste 15 Oeste 0 -- -- 72
2021-02-13 18:00:00 12 8 Oeste 15 Oeste 0 -- -- 68
2021-02-13 17:00:00 12.8 10 Oeste 26 Oeste 0 -- -- 63
2021-02-13 16:00:00 13.3 16 Oeste 33 Oeste 0 -- -- 58
2021-02-13 15:00:00 13.9 14 Oeste 29 Oeste 0 -- -- 56
2021-02-13 14:00:00 13.9 15 Oeste 31 Oeste 0 -- -- 55
2021-02-13 13:00:00 13.4 18 Noroeste 39 Noroeste 0 -- -- 55
2021-02-13 08:00:00 -- -- -- -- -- -- -- -- --
2021-02-13 07:00:00 7.7 6 Sudoeste 14 Sudoeste 0 -- -- 79
2021-02-13 06:00:00 8.2 0 Calma 19 Oeste 0 -- -- 78
2021-02-13 05:00:00 9 7 Oeste 16 Oeste 0 -- -- 76
2021-02-13 04:00:00 8.9 3 Sudeste 18 Noroeste 0 -- -- 77
2021-02-13 03:00:00 9.3 7 Noroeste 30 Oeste 0 -- -- 75
2021-02-13 02:00:00 9.7 13 Oeste 32 Oeste 0 -- -- 73
2021-02-13 01:00:00 10.2 17 Oeste 44 Oeste 0 -- -- 72
2021-02-13 00:00:00 10.5 21 Oeste 46 Oeste 0 -- -- 71
2021-02-12 23:00:00 10.7 22 Oeste 54 Oeste 0 -- -- 70
2021-02-12 22:00:00 10.7 28 Oeste 53 Oeste 0 -- -- 74
2021-02-12 21:00:00 10.8 15 Oeste 45 Oeste 0 -- -- 76
2021-02-12 20:00:00 11.1 21 Oeste 49 Oeste 0.2 -- -- 77
2021-02-12 19:00:00 10.9 21 Oeste 39 Oeste 0 -- -- 80
2021-02-12 18:00:00 10.6 18 Oeste 40 Oeste 0 -- -- 83
2021-02-12 17:00:00 10.2 15 Oeste 32 Oeste 0.2 -- -- 89
2021-02-12 16:00:00 10.1 10 Oeste 30 Oeste 1.4 -- -- 92
2021-02-12 15:00:00 11.6 9 Noroeste 35 Oeste 0.2 -- -- 84
2021-02-12 14:00:00 13.1 13 Noroeste 45 Oeste 0 -- -- 71
2021-02-12 13:00:00 14.3 18 Oeste 35 Noroeste 0 -- -- 59
2021-02-12 12:00:00 12.7 14 Oeste 36 Noroeste 0 -- -- 75
2021-02-12 11:00:00 11.5 5 Oeste 9 Oeste 0 -- -- 93
2021-02-12 10:00:00 9.2 0 Calma 5 Oeste 0 -- -- 100
2021-02-12 09:00:00 7.5 2 Oeste 7 Oeste 0 -- -- 99
2021-02-12 08:00:00 7.5 0 Calma 9 Sudeste 0 -- -- 99
2021-02-12 07:00:00 7.4 0 Calma 5 Este 0 -- -- 98
2021-02-12 06:00:00 7.3 2 Nordeste 12 Oeste 0 -- -- 98
2021-02-12 05:00:00 6.6 3 Este 13 Oeste 0 -- -- 99
2021-02-12 04:00:00 5.8 0 Calma 6 Noroeste 0 -- -- 99
2021-02-12 03:00:00 5.6 3 Este 5 Este 0 -- -- 99
2021-02-12 02:00:00 5.4 0 Calma -- -- 0 -- -- 98
2021-02-12 01:00:00 5.3 0 Calma -- -- 0 -- -- 97
2021-02-12 00:00:00 5.7 0 Calma -- -- 0 -- -- 95
2021-02-11 23:00:00 6.2 0 Calma -- -- 0 -- -- 94
2021-02-11 22:00:00 7.1 0 Calma 3 Sudoeste 0 -- -- 92
2021-02-11 21:00:00 8.4 0 Calma 4 Sudoeste 0 -- -- 88
2021-02-11 20:00:00 10.3 0 Calma 5 Sudoeste 0 -- -- 82
2021-02-11 19:00:00 12.9 3 Sur 9 Sudoeste 0 -- -- 73
2021-02-11 18:00:00 16 5 Oeste 23 Noroeste 0 -- -- 66
2021-02-11 17:00:00 16.9 10 Oeste 24 Noroeste 0 -- -- 59
2021-02-11 16:00:00 17.3 15 Noroeste 27 Oeste 0 -- -- 58
2021-02-11 15:00:00 16.8 12 Noroeste 29 Noroeste 0 -- -- 60
2021-02-11 14:00:00 16.6 15 Noroeste 30 Noroeste 0 -- -- 59
2021-02-11 13:00:00 16.1 13 Noroeste 26 Oeste 0 -- -- 60
2021-02-11 12:00:00 12.1 6 Oeste 18 Oeste 0 -- -- 75
2021-02-11 11:00:00 4.1 0 Calma 4 Noroeste 0 -- -- 100
2021-02-11 10:00:00 1.6 0 Calma 5 Oeste 0 -- -- 100
2021-02-11 09:00:00 0.2 0 Calma 5 Oeste 0 -- -- 100
2021-02-11 08:00:00 -0.4 0 Calma 3 Este 0 -- -- 100
2021-02-11 07:00:00 -0.6 0 Calma 5 Sudoeste 0 -- -- 99
2021-02-11 06:00:00 -0.6 0 Calma 6 Oeste 0 -- -- 99
2021-02-11 05:00:00 -0.3 0 Calma 4 Oeste 0 -- -- 98
2021-02-11 04:00:00 -0.1 0 Calma 6 Oeste 0 -- -- 98
2021-02-11 03:00:00 0.3 0 Calma 5 Noroeste 0 -- -- 97
2021-02-11 02:00:00 0.7 2 Oeste 5 Oeste 0 -- -- 97
2021-02-11 01:00:00 1.2 3 Oeste 5 Sudoeste 0 -- -- 96
2021-02-11 00:00:00 1.7 0 Calma 5 Sudoeste 0 -- -- 94
2021-02-10 23:00:00 2.7 2 Sudeste 6 Sudoeste 0 -- -- 92
2021-02-10 22:00:00 3.9 0 Calma 4 Sur 0 -- -- 89
2021-02-10 21:00:00 5.7 0 Calma 14 Oeste 0 -- -- 83
2021-02-10 20:00:00 6.5 3 Oeste 11 Sudoeste 0 -- -- 81
2021-02-10 19:00:00 8.6 0 Calma 17 Oeste 0 -- -- 73
2021-02-10 18:00:00 10.5 9 Oeste 27 Noroeste 0 -- -- 62
2021-02-10 17:00:00 11.8 16 Noroeste 38 Oeste 0 -- -- 57
2021-02-10 16:00:00 12 20 Noroeste 31 Oeste 0 -- -- 57
2021-02-10 15:00:00 11.2 14 Noroeste 52 Oeste 0 -- -- 59
2021-02-10 14:00:00 10.9 28 Oeste 51 Noroeste 0.2 -- -- 54
2021-02-10 13:00:00 9.7 15 Noroeste 38 Noroeste 0 -- -- 72
2021-02-10 12:00:00 9.5 19 Noroeste 37 Oeste 0 -- -- 66
2021-02-10 11:00:00 9.3 22 Oeste 50 Oeste 0 -- -- 68
2021-02-10 10:00:00 8.3 19 Oeste 40 Oeste 0 -- -- 73
2021-02-10 09:00:00 5.9 7 Oeste 16 Sudoeste 0.2 -- -- 98
2021-02-10 08:00:00 5.8 3 Sudeste 14 Oeste 0.4 -- -- 99
2021-02-10 07:00:00 4.7 4 Nordeste 8 Nordeste 0.4 -- -- 98
2021-02-10 06:00:00 4.1 0 Calma 5 Oeste 0.4 -- -- 97
2021-02-10 05:00:00 3.7 3 Sudeste 8 Oeste 0 -- -- 95
2021-02-10 04:00:00 4.2 3 Sur 8 Sudoeste 0 -- -- 93
2021-02-10 03:00:00 4.8 2 Sur 6 Sudoeste 0 -- -- 91
2021-02-10 02:00:00 5 3 Sudoeste 7 Sudoeste 0 -- -- 91
2021-02-10 01:00:00 5.1 0 Calma 5 Noroeste 0 -- -- 89
2021-02-10 00:00:00 5.1 0 Calma 6 Nordeste 0 -- -- 89
2021-02-09 23:00:00 5.4 3 Este 6 Este 0 -- -- 83
2021-02-09 22:00:00 7.3 0 Calma 13 Sudoeste 0 -- -- 73
2021-02-09 21:00:00 10.3 3 Oeste 21 Sur 0 -- -- 63
2021-02-09 20:00:00 11.4 8 Sudoeste 21 Oeste 0 -- -- 60
2021-02-09 19:00:00 11.9 14 Oeste 45 Oeste 0 -- -- 67
2021-02-09 18:00:00 14.7 15 Oeste 32 Oeste 0 -- -- 51
2021-02-09 17:00:00 14.8 11 Oeste 26 Oeste 0 -- -- 51
2021-02-09 16:00:00 14.1 3 Sudeste 21 Sur 0 -- -- 56
2021-02-09 15:00:00 14.2 6 Sur 16 Sudeste 0 -- -- 54
2021-02-09 14:00:00 13.5 5 Sudeste 25 Sur 0 -- -- 54
2021-02-09 13:00:00 11.8 8 Sur 20 Sudoeste 0 -- -- 57
2021-02-09 12:00:00 9 3 Este 8 Sur 0 -- -- 85
2021-02-09 11:00:00 7.8 4 Este 8 Este 0 -- -- 90
2021-02-09 10:00:00 6.1 0 Calma 5 Este 0 -- -- 95
2021-02-09 09:00:00 5 4 Sur 6 Oeste 0 -- -- 95
2021-02-09 08:00:00 4.7 0 Calma 6 Este 0 -- -- 93
2021-02-09 07:00:00 4.6 0 Calma 5 Sudoeste 0 -- -- 90
2021-02-09 06:00:00 5.5 3 Sudoeste 6 Oeste 0 -- -- 84
2021-02-09 05:00:00 7.1 5 Sudoeste 23 Oeste 0 -- -- 76
2021-02-09 04:00:00 8.7 9 Oeste 35 Oeste 0 -- -- 70
2021-02-09 03:00:00 8 7 Oeste 21 Oeste 0 -- -- 70
2021-02-09 02:00:00 8.3 8 Oeste 22 Sudoeste 0 -- -- 70
2021-02-09 01:00:00 8.5 8 Sudoeste 24 Noroeste 0 -- -- 69
2021-02-09 00:00:00 8.9 12 Oeste 32 Oeste 0 -- -- 67
2021-02-08 23:00:00 9.5 12 Oeste 37 Noroeste 0 -- -- 65
2021-02-08 22:00:00 9.6 12 Oeste 24 Oeste 0 -- -- 65
2021-02-08 21:00:00 8.7 5 Sudoeste 17 Sudoeste 0 -- -- 73
2021-02-08 20:00:00 8.9 7 Sudoeste 25 Oeste 0 -- -- 70
2021-02-08 19:00:00 9.3 10 Oeste 21 Oeste 0 -- -- 69
2021-02-08 18:00:00 10 6 Sudoeste 46 Oeste 0 -- -- 69
2021-02-08 17:00:00 11.1 6 Oeste 48 Oeste 0 -- -- 62
2021-02-08 16:00:00 12.1 8 Oeste 37 Oeste 0 -- -- 58
2021-02-08 15:00:00 12.5 22 Oeste 40 Noroeste 0 -- -- 54
2021-02-08 14:00:00 11.8 14 Oeste 27 Oeste 0 -- -- 68
2021-02-08 13:00:00 9.2 4 Norte 16 Oeste 0.8 -- -- 90
2021-02-08 12:00:00 7.7 16 Oeste 43 Oeste 0.8 -- -- 96
2021-02-08 11:00:00 7.2 0 Calma 9 Nordeste 0.4 -- -- 100
2021-02-08 10:00:00 4.9 3 Este 12 Oeste 2.6 -- -- 100
2021-02-08 09:00:00 3.9 2 Oeste 6 Sudeste 0.2 -- -- 99
2021-02-08 08:00:00 3.2 0 Calma 8 Sudeste 0 -- -- 99
2021-02-08 07:00:00 2.9 2 Oeste 4 Norte 0 -- -- 98
2021-02-08 06:00:00 2.6 0 Calma 7 Oeste 0 -- -- 98
2021-02-08 05:00:00 2 0 Calma 7 Oeste 0 -- -- 98
2021-02-08 04:00:00 1.4 0 Calma -- -- 0 -- -- 97
2021-02-08 03:00:00 1.2 0 Calma -- -- 0 -- -- 96
2021-02-08 02:00:00 1.6 0 Calma -- -- 0 -- -- 93
2021-02-08 01:00:00 2.3 0 Calma -- -- 0 -- -- 90
2021-02-08 00:00:00 3.1 0 Calma -- -- 0 -- -- 89
2021-02-07 23:00:00 3.2 0 Calma -- -- 0 -- -- 90
2021-02-07 22:00:00 3.5 0 Calma 4 Oeste 0 -- -- 86
2021-02-07 21:00:00 4.3 0 Calma 4 Sudoeste 0 -- -- 80
2021-02-07 20:00:00 5.5 0 Calma 12 Sudoeste 0 -- -- 73
2021-02-07 19:00:00 7.2 7 Sudoeste 15 Sudoeste 0 -- -- 65
2021-02-07 18:00:00 9.1 5 Sudoeste 21 Oeste 0 -- -- 60
2021-02-07 17:00:00 9.9 13 Oeste 33 Oeste 0 -- -- 50
2021-02-07 16:00:00 10.1 18 Oeste 40 Oeste 0 -- -- 48
2021-02-07 15:00:00 9.4 20 Noroeste 40 Noroeste 0 -- -- 52
2021-02-07 14:00:00 9.6 21 Oeste 40 Noroeste 0 -- -- 52
2021-02-07 13:00:00 8.7 22 Noroeste 39 Noroeste 0 -- -- 57
2021-02-07 12:00:00 8 21 Noroeste 39 Oeste 0 -- -- 58
2021-02-07 11:00:00 7.4 15 Noroeste 32 Oeste 0 -- -- 60
2021-02-07 10:00:00 5.8 9 Oeste 26 Oeste 0 -- -- 66
2021-02-07 09:00:00 4.5 9 Oeste 26 Oeste 0 -- -- 70
2021-02-07 08:00:00 4.7 11 Oeste 27 Oeste 0 -- -- 70
2021-02-07 07:00:00 5.1 14 Oeste 30 Oeste 0 -- -- 71
2021-02-07 06:00:00 5.4 13 Oeste 31 Oeste 0 -- -- 73
2021-02-07 05:00:00 5.6 13 Oeste 31 Oeste 0 -- -- 74
2021-02-07 04:00:00 5.9 12 Oeste 26 Oeste 0 -- -- 75
2021-02-07 03:00:00 6.1 11 Oeste 29 Sudoeste 0 -- -- 78
2021-02-07 02:00:00 6.2 8 Oeste 27 Oeste 0 -- -- 81
2021-02-07 01:00:00 6.3 9 Oeste 24 Oeste 0 -- -- 81
2021-02-07 00:00:00 7 11 Oeste 28 Oeste 0 -- -- 81
2021-02-06 23:00:00 7.4 10 Oeste 26 Noroeste 0 -- -- 86
2021-02-06 22:00:00 7.6 10 Oeste 22 Oeste 0 -- -- 91
2021-02-06 21:00:00 7.8 8 Oeste 24 Oeste 0 -- -- 91
2021-02-06 20:00:00 8.2 8 Oeste 23 Oeste 0 -- -- 94
2021-02-06 19:00:00 8.9 7 Oeste 18 Noroeste 0.6 -- -- 93
2021-02-06 18:00:00 10.2 11 Oeste 28 Oeste 3.4 -- -- 85
2021-02-06 17:00:00 13.3 5 Norte 12 Noroeste 0 -- -- 69
2021-02-06 16:00:00 13.8 6 Nordeste 22 Oeste 0 -- -- 62
2021-02-06 15:00:00 14.8 6 Norte 14 Nordeste 0 -- -- 60
2021-02-06 14:00:00 15.1 6 Nordeste 13 Nordeste 0 -- -- 56
2021-02-06 13:00:00 14.5 5 Noroeste 11 Oeste 0 -- -- 58
2021-02-06 12:00:00 13.1 6 Este 10 Este 0 -- -- 65
2021-02-06 11:00:00 9.9 7 Este 15 Noroeste 0 -- -- 83
2021-02-06 10:00:00 6.8 0 Calma 6 Este 0 -- -- 99
2021-02-06 09:00:00 5.1 4 Oeste 7 Oeste 0 -- -- 98
2021-02-06 08:00:00 5 3 Nordeste 7 Oeste 0 -- -- 96
2021-02-06 07:00:00 5.9 0 Calma 4 Oeste 0 -- -- 93
2021-02-06 06:00:00 6.8 3 Norte 8 Oeste 0 -- -- 92
2021-02-06 05:00:00 7.7 4 Oeste 9 Oeste 0 -- -- 90
2021-02-06 04:00:00 8.3 4 Sudoeste 10 Noroeste 0 -- -- 89
2021-02-06 03:00:00 8.8 8 Oeste 14 Sudeste 0 -- -- 87
2021-02-06 02:00:00 8.5 5 Nordeste 27 Oeste 0 -- -- 89
2021-02-06 01:00:00 7.5 4 Oeste 10 Oeste 0 -- -- 94
2021-02-06 00:00:00 7.1 5 Oeste 9 Oeste 0 -- -- 93
2021-02-05 23:00:00 7.6 3 Sudoeste 10 Oeste 0 -- -- 90
2021-02-05 22:00:00 8.4 6 Oeste 10 Oeste 0 -- -- 90
2021-02-05 21:00:00 9 4 Sudoeste 10 Sudoeste 0 -- -- 84
2021-02-05 20:00:00 10.4 4 Oeste 19 Este 0 -- -- 78
2021-02-05 19:00:00 11.3 4 Nordeste 13 Este 0 -- -- 74
2021-02-05 18:00:00 11.9 6 Nordeste 22 Sudeste 0 -- -- 75
2021-02-05 17:00:00 13.1 8 Nordeste 22 Sudeste 0 -- -- 70
2021-02-05 16:00:00 13.1 10 Nordeste 32 Sudeste 0 -- -- 71
2021-02-05 15:00:00 14 8 Este 24 Este 0 -- -- 68
2021-02-05 14:00:00 14.2 13 Este 33 Sudeste 0 -- -- 66
2021-02-05 13:00:00 14.5 12 Este 32 Sudeste 0 -- -- 64
2021-02-05 12:00:00 14 12 Este 44 Este 0 -- -- 63
2021-02-05 11:00:00 15.5 15 Este 42 Sudeste 0 -- -- 52
2021-02-05 10:00:00 11 9 Sudoeste 20 Oeste 0 -- -- 72
2021-02-05 09:00:00 5.7 0 Calma 0 Calma 0 -- -- 97
2021-02-05 08:00:00 5.7 0 Calma -- -- 0 -- -- 95
2021-02-05 07:00:00 6.1 0 Calma -- -- 0 -- -- 95
2021-02-05 06:00:00 6.3 0 Calma -- -- 0 -- -- 94
2021-02-05 05:00:00 6.5 0 Calma -- -- 0 -- -- 95
2021-02-05 04:00:00 6.5 0 Calma -- -- 0 -- -- 93
2021-02-05 03:00:00 6.9 0 Calma 5 Este 0 -- -- 91
2021-02-05 02:00:00 7.5 0 Calma 7 Oeste 0 -- -- 89
2021-02-05 01:00:00 7.9 0 Calma 5 Sudoeste 0 -- -- 88
2021-02-05 00:00:00 8.3 2 Noroeste 7 Nordeste 0 -- -- 86
2021-02-04 23:00:00 9 2 Sur 5 Este 0 -- -- 81
2021-02-04 22:00:00 10.1 0 Calma 7 Sudoeste 0 -- -- 75
2021-02-04 21:00:00 10.6 2 Noroeste 6 Oeste 0 -- -- 70
2021-02-04 20:00:00 12.2 0 Calma 15 Sudoeste 0 -- -- 63
2021-02-04 19:00:00 13.8 4 Sudoeste 11 Sudoeste 0 -- -- 58
2021-02-04 18:00:00 16.9 7 Sudeste 19 Oeste 0 -- -- 44
2021-02-04 17:00:00 18.3 5 Este 14 Sur 0 -- -- 37
2021-02-04 16:00:00 17.8 4 Nordeste 14 Nordeste 0 -- -- 48
2021-02-04 15:00:00 16.8 3 Este 9 Sur 0 -- -- 61
2021-02-04 14:00:00 15.2 3 Oeste 16 Oeste 0 -- -- 70
2021-02-04 13:00:00 14.6 12 Noroeste 16 Oeste 0 -- -- 72
2021-02-04 12:00:00 15.2 5 Nordeste 14 Oeste 0 -- -- 66
2021-02-04 11:00:00 12.4 0 Calma -- -- 0 -- -- 80
2021-02-04 10:00:00 8.8 0 Calma -- -- 0 -- -- 97
2021-02-04 09:00:00 5.8 0 Calma -- -- 0 -- -- 99
2021-02-04 08:00:00 5.6 0 Calma -- -- 0 -- -- 99
2021-02-04 07:00:00 5.5 0 Calma -- -- 0 -- -- 99
2021-02-04 06:00:00 5.5 0 Calma -- -- 0 -- -- 98
2021-02-04 05:00:00 5.9 0 Calma -- -- 0 -- -- 98
2021-02-04 04:00:00 6 0 Calma -- -- 0 -- -- 97
2021-02-04 03:00:00 6.3 0 Calma -- -- 0 -- -- 97
2021-02-04 02:00:00 6.4 0 Calma -- -- 0 -- -- 97
2021-02-04 01:00:00 6.6 0 Calma -- -- 0 -- -- 96
2021-02-04 00:00:00 7.1 0 Calma -- -- 0 -- -- 94